Time;durP1;ratioP1;P1;durP2;ratioP2;P2;SDS_P1;SDS_P2;PMS_P1;PMS_P2;Temp;Humidity;BMP_temperature;BMP_pressure;BME280_temperature;BME280_humidity;BME280_pressure;Samples;Min_cycle;Max_cycle;Signal;HPM_P1;HPM_P2
2022/06/14 00:01:29;;;;;;;;;;;;;;;18.45;47.32;100414.81;1087546;54;19943;-83
2022/06/14 00:02:33;;;;;;;;;;;;;;;18.38;47.68;100411.19;1087367;54;19943;-84
2022/06/14 00:03:35;;;;;;;;;;;;;;;18.41;47.42;100418.94;1087473;54;19983;-83
2022/06/14 00:04:39;;;;;;;;;;;;;;;18.42;47.43;100415.19;1087485;54;19943;-84
2022/06/14 00:05:40;;;;;;;;;;;;;;;18.44;47.32;100423.97;1087592;54;19949;-85
2022/06/14 00:06:44;;;;;;;;;;;;;;;18.43;47.37;100422.28;1087522;54;21042;-84
2022/06/14 00:07:45;;;;;;;;;;;;;;;18.46;47.14;100421.91;1087535;54;19942;-84
2022/06/14 00:08:52;;;;;;;;;;;;;;;18.48;47.06;100414.44;1087514;54;20872;-84
2022/06/14 00:09:53;;;;;;;;;;;;;;;18.50;46.96;100420.53;1087498;54;19942;-83
2022/06/14 00:10:59;;;;;;;;;;;;;;;18.54;46.87;100421.81;1087503;54;20044;-86
2022/06/14 00:12:01;;;;;;;;;;;;;;;18.55;47.00;100420.78;1087895;54;19927;-83
2022/06/14 00:13:06;;;;;;;;;;;;;;;18.59;46.79;100418.53;1087907;54;19927;-84
2022/06/14 00:14:11;;;;;;;;;;;;;;;18.62;46.73;100412.75;1087999;54;19942;-83
2022/06/14 00:15:12;;;;;;;;;;;;;;;18.65;46.74;100419.66;1087991;54;19994;-82
2022/06/14 00:16:17;;;;;;;;;;;;;;;18.65;46.91;100420.50;1088009;54;19954;-82
2022/06/14 00:17:18;;;;;;;;;;;;;;;18.68;46.65;100420.09;1091525;39;20633;-84
2022/06/14 00:18:22;;;;;;;;;;;;;;;18.69;46.47;100418.25;1087982;54;19943;-83
2022/06/14 00:19:23;;;;;;;;;;;;;;;18.71;46.26;100411.63;1088736;47;19943;-84
2022/06/14 00:20:27;;;;;;;;;;;;;;;18.71;46.78;100417.03;1087958;54;20005;-85
2022/06/14 00:21:28;;;;;;;;;;;;;;;18.68;46.64;100417.41;1087960;54;20014;-83
2022/06/14 00:22:32;;;;;;;;;;;;;;;18.67;46.58;100417.59;1087917;54;19954;-82
2022/06/14 00:23:37;;;;;;;;;;;;;;;18.68;46.56;100422.00;1087893;54;19998;-84
2022/06/14 00:24:41;;;;;;;;;;;;;;;18.66;46.46;100416.75;1087956;54;19942;-83
2022/06/14 00:25:46;;;;;;;;;;;;;;;18.68;46.48;100413.88;1087970;54;19938;-82
2022/06/14 00:26:47;;;;;;;;;;;;;;;18.66;46.65;100418.63;1087438;54;19959;-82
2022/06/14 00:27:51;;;;;;;;;;;;;;;18.67;46.47;100418.44;1087408;54;19942;-84
2022/06/14 00:28:55;;;;;;;;;;;;;;;18.70;46.17;100417.22;1087785;54;19958;-85
2022/06/14 00:29:56;;;;;;;;;;;;;;;18.71;46.14;100413.47;1087948;54;19942;-82
2022/06/14 00:31:01;;;;;;;;;;;;;;;18.63;46.41;100419.00;1087892;54;19943;-83
2022/06/14 00:32:03;;;;;;;;;;;;;;;18.61;46.44;100421.91;1087853;54;19943;-84
2022/06/14 00:33:07;;;;;;;;;;;;;;;18.59;46.67;100421.25;1088051;54;19961;-84
2022/06/14 00:34:09;;;;;;;;;;;;;;;18.59;46.40;100421.25;1088162;54;19943;-83
2022/06/14 00:35:13;;;;;;;;;;;;;;;18.56;46.31;100413.53;1088147;54;19942;-83
2022/06/14 00:36:22;;;;;;;;;;;;;;;18.53;46.37;100422.84;1087849;54;19942;-85
2022/06/14 00:37:23;;;;;;;;;;;;;;;18.52;46.49;100420.31;1087750;54;19943;-84
2022/06/14 00:38:27;;;;;;;;;;;;;;;18.49;46.49;100415.28;1088042;54;19934;-84
2022/06/14 00:39:29;;;;;;;;;;;;;;;18.49;46.35;100415.28;1088141;54;19943;-83
2022/06/14 00:40:37;;;;;;;;;;;;;;;18.48;46.34;100419.00;1088074;54;19998;-84
2022/06/14 00:41:40;;;;;;;;;;;;;;;18.47;46.07;100415.47;1088101;54;19943;-81
2022/06/14 00:42:43;;;;;;;;;;;;;;;18.45;46.59;100409.41;1087717;54;19967;-82
2022/06/14 00:43:44;;;;;;;;;;;;;;;18.39;46.58;100413.69;1087946;54;19949;-84
2022/06/14 00:45:04;;;;;;;;;;;;;;;18.39;46.67;100410.16;1088187;54;19942;-84
2022/06/14 00:46:17;;;;;;;;;;;;;;;18.40;46.82;100417.25;1088142;54;19942;-82
2022/06/14 00:47:21;;;;;;;;;;;;;;;18.42;46.70;100415.19;1088877;46;19949;-83
2022/06/14 00:48:25;;;;;;;;;;;;;;;18.38;46.48;100416.59;1091105;39;20779;-83
2022/06/14 00:49:31;;;;;;;;;;;;;;;18.35;46.56;100411.56;1090652;39;20490;-85
2022/06/14 00:50:34;;;;;;;;;;;;;;;18.33;46.69;100411.75;1088549;54;19942;-85
2022/06/14 00:51:44;;;;;;;;;;;;;;;18.33;46.40;100416.31;1088497;54;19939;-82
2022/06/14 00:52:48;;;;;;;;;;;;;;;18.27;46.42;100414.34;1087928;54;19926;-84
2022/06/14 00:53:55;;;;;;;;;;;;;;;18.20;46.53;100407.00;1088562;54;19935;-84
2022/06/14 00:54:59;;;;;;;;;;;;;;;18.20;46.46;100409.69;1088582;54;19943;-85
2022/06/14 00:56:08;;;;;;;;;;;;;;;18.18;46.60;100409.03;1088545;54;19942;-84
2022/06/14 00:57:11;;;;;;;;;;;;;;;18.10;46.45;100409.13;1088542;54;19934;-84
2022/06/14 00:58:17;;;;;;;;;;;;;;;17.98;46.40;100411.47;1091753;46;19942;-83
2022/06/14 00:59:22;;;;;;;;;;;;;;;17.93;46.47;100411.97;1088619;54;19943;-84
2022/06/14 01:00:29;;;;;;;;;;;;;;;17.91;46.71;100415.88;1088568;54;19966;-84
2022/06/14 01:01:32;;;;;;;;;;;;;;;17.95;46.86;100416.38;1088579;54;19950;-84
2022/06/14 01:02:40;;;;;;;;;;;;;;;17.92;46.40;100415.72;1088543;54;19979;-83
2022/06/14 01:03:43;;;;;;;;;;;;;;;17.95;46.55;100416.38;1088523;54;19927;-84
2022/06/14 01:04:47;;;;;;;;;;;;;;;17.97;46.51;100417.03;1093990;39;20642;-85
2022/06/14 01:07:12;;;;;;;;;;;;;;;18.01;46.35;100421.88;1088145;54;19942;-83
2022/06/14 01:08:13;;;;;;;;;;;;;;;18.05;45.95;100425.91;1092752;39;20558;-83
2022/06/14 01:09:19;;;;;;;;;;;;;;;18.10;45.83;100422.66;1088619;54;19945;-84
2022/06/14 01:10:22;;;;;;;;;;;;;;;18.11;45.67;100424.34;1088800;54;19966;-83
2022/06/14 01:11:39;;;;;;;;;;;;;;;18.13;45.95;100416.88;1090444;46;19934;-83
2022/06/14 01:12:44;;;;;;;;;;;;;;;18.14;45.54;100423.13;1088490;54;19942;-84
2022/06/14 01:13:48;;;;;;;;;;;;;;;18.11;45.45;100427.03;1088561;54;19934;-83
2022/06/14 01:14:56;;;;;;;;;;;;;;;18.11;45.41;100424.34;1088569;54;19927;-82
2022/06/14 01:16:00;;;;;;;;;;;;;;;18.15;45.32;100425.63;1088560;54;19935;-83
2022/06/14 01:17:01;;;;;;;;;;;;;;;18.16;45.43;100419.19;1088530;54;19950;-85
2022/06/14 01:18:07;;;;;;;;;;;;;;;18.19;45.33;100421.53;1088564;54;19982;-83
2022/06/14 01:19:11;;;;;;;;;;;;;;;18.20;45.45;100417.81;1088550;54;19927;-83
2022/06/14 01:20:16;;;;;;;;;;;;;;;17.99;47.47;100417.69;1093624;39;20383;-82
2022/06/14 01:21:18;;;;;;;;;;;;;;;17.79;48.81;100418.19;1088482;54;20605;-84
2022/06/14 01:22:28;;;;;;;;;;;;;;;17.82;48.73;100420.53;1088323;54;20843;-83
2022/06/14 01:23:30;;;;;;;;;;;;;;;17.92;48.34;100420.25;1088114;54;19950;-83
2022/06/14 01:24:34;;;;;;;;;;;;;;;17.95;48.14;100414.50;1088238;54;19943;-82
2022/06/14 01:25:38;;;;;;;;;;;;;;;17.98;48.48;100421.41;1088509;54;20614;-82
2022/06/14 01:26:42;;;;;;;;;;;;;;;17.88;48.69;100419.78;1088551;54;19954;-84
2022/06/14 01:27:43;;;;;;;;;;;;;;;17.78;49.29;100422.78;1088526;54;19950;-84
2022/06/14 01:28:50;;;;;;;;;;;;;;;17.61;49.79;100418.53;1090458;39;20412;-82
2022/06/14 01:29:56;;;;;;;;;;;;;;;17.51;50.60;100415.25;1095629;39;20460;-83
2022/06/14 01:31:00;;;;;;;;;;;;;;;17.43;51.45;100413.44;1088539;54;19942;-83
2022/06/14 01:32:04;;;;;;;;;;;;;;;17.39;52.30;100415.66;1088497;54;19943;-83
2022/06/14 01:33:10;;;;;;;;;;;;;;;17.38;52.67;100405.03;1088816;46;19942;-83
2022/06/14 01:34:12;;;;;;;;;;;;;;;17.43;52.34;100411.56;1088591;54;19946;-84
2022/06/14 01:35:19;;;;;;;;;;;;;;;17.51;52.12;100407.13;1092009;47;20592;-83
2022/06/14 01:36:22;;;;;;;;;;;;;;;17.54;52.33;100410.31;1094457;31;20735;-81
2022/06/14 01:37:29;;;;;;;;;;;;;;;17.56;52.44;100404.72;1088454;54;19943;-83
2022/06/14 01:38:33;;;;;;;;;;;;;;;17.29;53.32;100407.78;1088327;54;19927;-82
2022/06/14 01:39:36;;;;;;;;;;;;;;;17.33;52.98;100394.78;1088124;54;19937;-82
2022/06/14 01:40:47;;;;;;;;;;;;;;;17.12;53.22;100401.66;1088116;54;19942;-82
2022/06/14 01:41:55;;;;;;;;;;;;;;;16.97;53.94;100407.00;1088160;54;19957;-83
2022/06/14 01:43:05;;;;;;;;;;;;;;;16.96;53.94;100407.16;1087820;54;19942;-84
2022/06/14 01:44:18;;;;;;;;;;;;;;;16.93;54.28;100407.50;1088110;54;19950;-85
2022/06/14 01:45:29;;;;;;;;;;;;;;;16.87;54.71;100409.03;1088583;54;20015;-83
2022/06/14 01:46:38;;;;;;;;;;;;;;;16.88;54.32;100413.44;1088589;54;19943;-84
2022/06/14 01:47:46;;;;;;;;;;;;;;;16.96;54.23;100415.25;1088623;47;20230;-81
2022/06/14 01:48:56;;;;;;;;;;;;;;;16.99;53.85;100410.38;1088702;54;19967;-84
2022/06/14 01:52:51;;;;;;;;;;;;;;;17.03;54.10;100415.38;1088543;54;19945;-84
2022/06/14 01:54:00;;;;;;;;;;;;;;;16.94;54.24;100418.13;1088589;54;19967;-82
2022/06/14 01:55:07;;;;;;;;;;;;;;;16.84;55.02;100409.38;1088619;54;19934;-83
2022/06/14 01:56:14;;;;;;;;;;;;;;;16.83;54.80;100413.09;1088588;54;19927;-84
2022/06/14 01:57:21;;;;;;;;;;;;;;;16.89;54.38;100409.72;1092588;39;20463;-83
2022/06/14 01:58:29;;;;;;;;;;;;;;;16.97;54.12;100412.41;1088586;54;19942;-83
2022/06/14 01:59:35;;;;;;;;;;;;;;;16.99;54.24;100414.91;1088631;54;19950;-83
2022/06/14 02:00:45;;;;;;;;;;;;;;;17.07;53.61;100417.56;1088638;54;19942;-82
2022/06/14 02:01:50;;;;;;;;;;;;;;;17.00;53.92;100414.72;1089057;39;20498;-83
2022/06/14 02:04:37;;;;;;;;;;;;;;;16.97;53.87;100415.09;1088750;54;19979;-84
2022/06/14 02:05:43;;;;;;;;;;;;;;;16.76;54.57;100420.22;1091365;46;19923;-83
2022/06/14 02:07:01;;;;;;;;;;;;;;;16.65;54.57;100427.69;1088621;54;20606;-84
2022/06/14 02:08:06;;;;;;;;;;;;;;;16.61;54.72;100423.69;1088739;46;19942;-83
2022/06/14 02:09:14;;;;;;;;;;;;;;;16.63;54.85;100426.19;1088610;54;20011;-84
2022/06/14 02:10:21;;;;;;;;;;;;;;;16.67;54.35;100417.56;1088585;54;19931;-84
2022/06/14 02:11:25;;;;;;;;;;;;;;;16.64;54.84;100426.00;1088567;54;19927;-83
2022/06/14 02:12:36;;;;;;;;;;;;;;;16.67;54.45;100432.94;1088524;54;19949;-83
2022/06/14 02:13:41;;;;;;;;;;;;;;;16.71;54.46;100420.75;1088540;54;19949;-85
2022/06/14 02:14:53;;;;;;;;;;;;;;;16.76;54.34;100425.63;1088624;54;20006;-84
2022/06/14 02:15:57;;;;;;;;;;;;;;;16.76;54.27;100414.84;1088561;54;19927;-82
2022/06/14 02:17:04;;;;;;;;;;;;;;;16.76;54.46;100414.84;1088600;54;19927;-83
2022/06/14 02:18:10;;;;;;;;;;;;;;;16.79;53.96;100419.88;1088578;54;19934;-84
2022/06/14 02:19:17;;;;;;;;;;;;;;;16.82;53.81;100420.38;1094964;39;20156;-83
2022/06/14 02:20:29;;;;;;;;;;;;;;;16.91;53.53;100421.16;1088531;54;19922;-82
2022/06/14 02:21:38;;;;;;;;;;;;;;;16.89;53.31;100417.81;1088806;46;19939;-81
2022/06/14 02:22:41;;;;;;;;;;;;;;;16.95;53.13;100419.81;1088531;54;19935;-83
2022/06/14 02:23:49;;;;;;;;;;;;;;;16.96;53.48;100421.50;1089475;46;19950;-84
2022/06/14 02:24:53;;;;;;;;;;;;;;;16.99;53.10;100421.16;1088644;46;19942;-85
2022/06/14 02:25:58;;;;;;;;;;;;;;;17.03;53.13;100421.66;1088601;54;19978;-82
2022/06/14 02:27:01;;;;;;;;;;;;;;;17.04;53.10;100417.06;1092419;46;19946;-84
2022/06/14 02:28:13;;;;;;;;;;;;;;;17.04;53.24;100419.78;1095016;46;19990;-83
2022/06/14 02:29:20;;;;;;;;;;;;;;;17.04;53.05;100414.38;1089217;46;19922;-81
2022/06/14 02:30:23;;;;;;;;;;;;;;;17.04;52.85;100417.06;1091987;46;19938;-83
2022/06/14 02:31:30;;;;;;;;;;;;;;;17.03;52.79;100418.09;1088700;54;19934;-84
2022/06/14 02:32:35;;;;;;;;;;;;;;;17.00;52.54;100417.41;1088661;54;19943;-83
2022/06/14 02:33:42;;;;;;;;;;;;;;;16.92;52.96;100417.44;1089609;46;19967;-85
2022/06/14 02:34:45;;;;;;;;;;;;;;;16.91;52.87;100413.06;1088749;54;19950;-83
2022/06/14 02:35:54;;;;;;;;;;;;;;;16.90;53.00;100410.53;1090652;46;19934;-84
2022/06/14 02:37:00;;;;;;;;;;;;;;;16.88;52.96;100413.44;1098060;46;19931;-84
2022/06/14 02:38:06;;;;;;;;;;;;;;;16.88;53.07;100418.81;1088663;54;19923;-86
2022/06/14 02:39:11;;;;;;;;;;;;;;;16.86;53.14;100411.94;1093786;46;19961;-83
2022/06/14 02:40:18;;;;;;;;;;;;;;;16.83;53.25;100410.41;1088659;54;19927;-83
2022/06/14 02:41:21;;;;;;;;;;;;;;;16.79;53.44;100409.09;1090917;46;19938;-83
2022/06/14 02:42:28;;;;;;;;;;;;;;;16.75;53.73;100407.75;1088650;54;19962;-82
2022/06/14 02:43:33;;;;;;;;;;;;;;;16.64;54.42;100401.72;1088724;54;19942;-83
2022/06/14 02:44:39;;;;;;;;;;;;;;;16.59;54.27;100404.13;1088683;54;19947;-82
2022/06/14 02:45:43;;;;;;;;;;;;;;;16.57;54.40;100406.16;1088737;54;19947;-83
2022/06/14 02:46:49;;;;;;;;;;;;;;;16.56;54.25;100414.44;1090133;46;19934;-84
2022/06/14 02:47:53;;;;;;;;;;;;;;;16.55;54.20;100405.47;1088783;54;19946;-83
2022/06/14 02:48:59;;;;;;;;;;;;;;;16.52;54.38;100413.94;1088802;54;19938;-83
2022/06/14 02:50:06;;;;;;;;;;;;;;;16.52;54.65;100416.63;1088740;54;19930;-82
2022/06/14 02:51:12;;;;;;;;;;;;;;;16.47;55.21;100413.59;1088782;54;19927;-83
2022/06/14 02:52:19;;;;;;;;;;;;;;;16.47;54.93;100416.31;1090882;46;19927;-84
2022/06/14 02:53:23;;;;;;;;;;;;;;;16.49;54.78;100414.28;1088770;54;19934;-82
2022/06/14 02:54:32;;;;;;;;;;;;;;;16.49;54.79;100419.69;1091801;46;19939;-83
2022/06/14 02:55:37;;;;;;;;;;;;;;;16.46;54.64;100415.47;1088846;54;19925;-82
2022/06/14 02:56:46;;;;;;;;;;;;;;;16.48;54.52;100418.00;1088807;54;19943;-82
2022/06/14 02:57:50;;;;;;;;;;;;;;;16.49;54.44;100412.41;1088845;54;19934;-82
2022/06/14 02:58:57;;;;;;;;;;;;;;;16.51;54.56;100423.06;1091615;46;19933;-82
2022/06/14 03:00:01;;;;;;;;;;;;;;;16.46;54.69;100415.47;1088805;54;19930;-81
2022/06/14 03:01:07;;;;;;;;;;;;;;;16.48;54.59;100423.38;1088546;54;19923;-82
2022/06/14 03:02:11;;;;;;;;;;;;;;;16.47;54.66;100421.69;1088674;54;19931;-83
2022/06/14 03:03:18;;;;;;;;;;;;;;;16.49;54.47;100414.28;1088684;54;19938;-83
2022/06/14 03:04:22;;;;;;;;;;;;;;;16.49;54.76;100419.69;1088692;54;19934;-83
2022/06/14 03:05:32;;;;;;;;;;;;;;;16.51;54.50;100420.34;1091663;46;19938;-83
2022/06/14 03:06:39;;;;;;;;;;;;;;;16.42;55.24;100413.31;1088569;54;19982;-81
2022/06/14 03:07:44;;;;;;;;;;;;;;;16.36;55.53;100409.44;1088577;54;19934;-83
2022/06/14 03:08:49;;;;;;;;;;;;;;;16.32;55.08;100414.34;1088698;54;19939;-83
2022/06/14 03:09:56;;;;;;;;;;;;;;;16.26;55.45;100420.41;1088787;54;19962;-83
2022/06/14 03:11:05;;;;;;;;;;;;;;;16.27;55.49;100411.31;1088700;54;19934;-82
2022/06/14 03:12:16;;;;;;;;;;;;;;;16.28;55.79;100413.00;1088698;54;19935;-84
2022/06/14 03:13:23;;;;;;;;;;;;;;;16.30;55.26;100416.38;1091649;46;19931;-82
2022/06/14 03:14:29;;;;;;;;;;;;;;;16.26;56.18;100414.19;1088687;54;19923;-83
2022/06/14 03:15:33;;;;;;;;;;;;;;;16.28;55.73;100420.25;1088696;54;19983;-81
2022/06/14 03:16:40;;;;;;;;;;;;;;;16.27;56.09;100408.63;1088659;54;19939;-83
2022/06/14 03:17:48;;;;;;;;;;;;;;;16.27;56.39;100410.47;1092482;46;19946;-82
2022/06/14 03:18:55;;;;;;;;;;;;;;;16.25;56.20;100416.03;1088653;54;19927;-83
2022/06/14 03:20:02;;;;;;;;;;;;;;;16.27;56.44;100415.88;1088741;54;19927;-82
2022/06/14 03:21:10;;;;;;;;;;;;;;;16.23;56.48;100415.38;1099631;46;19931;-83
2022/06/14 03:22:16;;;;;;;;;;;;;;;16.26;56.50;100425.81;1099595;46;19950;-83
2022/06/14 03:23:35;;;;;;;;;;;;;;;16.23;56.47;100415.38;1088743;47;19942;-83
2022/06/14 03:24:40;;;;;;;;;;;;;;;16.24;56.45;100416.22;1088719;54;19926;-83
2022/06/14 03:25:51;;;;;;;;;;;;;;;16.24;56.59;100416.22;1088846;47;19927;-82
2022/06/14 03:26:57;;;;;;;;;;;;;;;16.22;56.62;100422.63;1088690;54;19958;-83
2022/06/14 03:28:05;;;;;;;;;;;;;;;16.18;57.17;100423.13;1095415;46;19926;-82
2022/06/14 03:29:11;;;;;;;;;;;;;;;16.18;56.91;100417.75;1088687;54;19930;-84
2022/06/14 03:30:17;;;;;;;;;;;;;;;16.08;58.00;100406.31;1088756;54;19923;-82
2022/06/14 03:31:22;;;;;;;;;;;;;;;16.08;57.44;100417.09;1089653;46;19923;-81
2022/06/14 03:32:30;;;;;;;;;;;;;;;16.09;57.37;100413.38;1088685;54;19933;-81
2022/06/14 03:33:34;;;;;;;;;;;;;;;16.05;57.09;100411.06;1088852;54;19950;-83
2022/06/14 03:34:41;;;;;;;;;;;;;;;16.02;57.16;100416.78;1088784;54;19943;-82
2022/06/14 03:35:47;;;;;;;;;;;;;;;16.03;56.91;100412.22;1088625;54;19923;-83
2022/06/14 03:36:50;;;;;;;;;;;;;;;16.02;56.88;100416.78;1090257;46;19935;-81
2022/06/14 03:37:52;;;;;;;;;;;;;;;16.01;56.77;100406.16;1091606;46;19927;-83
2022/06/14 03:38:56;;;;;;;;;;;;;;;16.00;57.11;100405.31;1088592;54;19946;-81
2022/06/14 03:40:01;;;;;;;;;;;;;;;15.96;57.27;100412.06;1089279;46;19942;-83
2022/06/14 03:41:13;;;;;;;;;;;;;;;15.93;57.13;100414.25;1088679;54;19927;-81
2022/06/14 03:42:15;;;;;;;;;;;;;;;15.94;56.99;100406.00;1094567;46;19978;-83
2022/06/14 03:43:19;;;;;;;;;;;;;;;15.94;56.69;100407.84;1090573;46;19923;-82
2022/06/14 03:46:05;;;;;;;;;;;;;;;15.90;56.09;100410.91;1088673;54;19919;-82
2022/06/14 03:47:12;;;;;;;;;;;;;;;15.90;56.45;100407.34;1090451;46;19919;-82
2022/06/14 03:48:16;;;;;;;;;;;;;;;15.89;56.38;100408.34;1088555;54;19945;-83
2022/06/14 03:49:42;;;;;;;;;;;;;;;15.87;56.00;100411.25;1088677;54;19939;-82
2022/06/14 03:50:50;;;;;;;;;;;;;;;15.86;55.94;100411.41;1098697;46;19947;-83
2022/06/14 03:51:59;;;;;;;;;;;;;;;15.85;56.04;100404.34;1088585;54;19949;-83
2022/06/14 03:53:08;;;;;;;;;;;;;;;15.87;55.78;100411.25;1088513;54;19975;-82
2022/06/14 04:38:37;;;;;;;;;;;;;;;15.84;57.18;100426.91;1088286;54;19958;-83
2022/06/14 04:39:40;;;;;;;;;;;;;;;15.85;57.38;100424.03;1088951;54;19947;-81
2022/06/14 04:40:55;;;;;;;;;;;;;;;15.82;57.45;100421.63;1088932;54;19950;-82
2022/06/14 04:41:59;;;;;;;;;;;;;;;15.84;56.91;100422.34;1094435;39;20597;-82
2022/06/14 04:43:06;;;;;;;;;;;;;;;15.82;56.83;100426.19;1088906;54;19974;-81
2022/06/14 04:44:09;;;;;;;;;;;;;;;15.78;57.27;100427.53;1088905;54;19938;-82
2022/06/14 04:45:16;;;;;;;;;;;;;;;15.75;56.55;100424.19;1088672;54;20199;-80
2022/06/14 04:46:19;;;;;;;;;;;;;;;15.66;56.00;100427.91;1088840;54;19926;-81
2022/06/14 04:47:31;;;;;;;;;;;;;;;15.63;56.43;100430.94;1088871;54;19948;-83
2022/06/14 04:48:36;;;;;;;;;;;;;;;15.66;56.25;100424.34;1088901;54;19951;-83
2022/06/14 04:49:45;;;;;;;;;;;;;;;15.74;56.04;100424.34;1088986;54;19927;-82
2022/06/14 04:50:49;;;;;;;;;;;;;;;15.77;56.02;100423.19;1088953;54;19923;-84
2022/06/14 04:51:54;;;;;;;;;;;;;;;15.82;56.23;100427.03;1088887;54;19949;-81
2022/06/14 04:53:00;;;;;;;;;;;;;;;15.88;56.18;100421.00;1088987;54;20586;-83
2022/06/14 04:54:06;;;;;;;;;;;;;;;15.96;56.30;100422.00;1088981;54;19941;-80
2022/06/14 04:55:12;;;;;;;;;;;;;;;16.00;56.07;100424.19;1099461;46;20223;-80
2022/06/14 04:56:18;;;;;;;;;;;;;;;16.03;55.70;100423.84;1088995;54;19923;-82
2022/06/14 04:57:24;;;;;;;;;;;;;;;16.02;55.63;100414.06;1088995;54;19922;-82
2022/06/14 04:58:26;;;;;;;;;;;;;;;15.95;55.94;100418.47;1091898;46;19943;-81
2022/06/14 04:59:36;;;;;;;;;;;;;;;15.97;55.83;100416.44;1088842;54;19946;-82
2022/06/14 05:00:40;;;;;;;;;;;;;;;15.97;55.86;100419.13;1088883;54;19919;-82
2022/06/14 05:01:48;;;;;;;;;;;;;;;16.02;55.69;100419.47;1088752;54;19934;-81
2022/06/14 05:02:51;;;;;;;;;;;;;;;16.10;55.49;100420.47;1088705;54;19930;-82
2022/06/14 05:03:57;;;;;;;;;;;;;;;16.03;55.55;100415.78;1088661;54;19926;-80
2022/06/14 05:05:01;;;;;;;;;;;;;;;15.93;55.49;100419.63;1088793;54;19957;-82
2022/06/14 05:06:09;;;;;;;;;;;;;;;15.79;55.78;100413.91;1088907;54;19958;-81
2022/06/14 05:07:12;;;;;;;;;;;;;;;15.72;55.94;100419.13;1093487;39;20605;-82
2022/06/14 05:08:20;;;;;;;;;;;;;;;15.78;56.09;100422.16;1088843;54;20003;-83
2022/06/14 05:09:26;;;;;;;;;;;;;;;15.86;56.09;100417.63;1088910;54;19930;-81
2022/06/14 05:10:33;;;;;;;;;;;;;;;15.91;55.59;100411.72;1088909;54;19931;-81
2022/06/14 05:11:40;;;;;;;;;;;;;;;15.86;55.59;100416.81;1088797;54;20480;-81
2022/06/14 05:12:48;;;;;;;;;;;;;;;15.91;55.55;100411.72;1088894;54;19935;-82
2022/06/14 05:13:53;;;;;;;;;;;;;;;15.95;55.88;100410.41;1088810;54;19929;-82
2022/06/14 05:14:59;;;;;;;;;;;;;;;16.02;55.74;100415.91;1088918;54;19934;-82
2022/06/14 05:16:04;;;;;;;;;;;;;;;16.09;55.81;100408.84;1088693;54;20555;-82
2022/06/14 05:17:10;;;;;;;;;;;;;;;16.14;55.89;100411.03;1088632;54;19979;-82
2022/06/14 05:18:14;;;;;;;;;;;;;;;16.18;56.03;100412.34;1088653;54;19950;-81
2022/06/14 05:19:22;;;;;;;;;;;;;;;16.22;55.93;100403.75;1088670;54;20658;-81
2022/06/14 05:20:27;;;;;;;;;;;;;;;16.22;56.46;100409.13;1088766;54;19927;-81
2022/06/14 05:21:33;;;;;;;;;;;;;;;16.27;56.34;100407.78;1088689;54;19949;-81
2022/06/14 05:22:36;;;;;;;;;;;;;;;16.30;56.61;100408.28;1088474;54;19962;-84
2022/06/14 05:23:44;;;;;;;;;;;;;;;16.31;56.04;100407.25;1088473;54;19950;-82
2022/06/14 05:24:48;;;;;;;;;;;;;;;16.20;55.60;100410.31;1088401;54;19942;-81
2022/06/14 05:26:02;;;;;;;;;;;;;;;16.17;55.80;100410.66;1088631;54;19986;-82
2022/06/14 05:27:10;;;;;;;;;;;;;;;16.17;56.07;100413.34;1088837;54;19941;-80
2022/06/14 05:28:15;;;;;;;;;;;;;;;16.22;56.45;100411.00;1088692;54;19934;-81
2022/06/14 05:29:21;;;;;;;;;;;;;;;16.30;56.08;100404.72;1088811;54;19999;-82
2022/06/14 05:30:37;;;;;;;;;;;;;;;16.39;55.90;100409.06;1088808;54;19923;-80
2022/06/14 05:31:43;;;;;;;;;;;;;;;16.45;55.93;100412.94;1088731;54;19994;-81
2022/06/14 05:32:51;;;;;;;;;;;;;;;16.52;55.44;100409.38;1088760;54;19933;-82
2022/06/14 05:33:54;;;;;;;;;;;;;;;16.58;55.03;100412.41;1088688;54;19930;-83
2022/06/14 05:35:04;;;;;;;;;;;;;;;16.55;55.30;100410.88;1088816;54;19942;-81
2022/06/14 05:36:10;;;;;;;;;;;;;;;16.60;55.18;100413.91;1088774;54;19943;-82
2022/06/14 05:37:20;;;;;;;;;;;;;;;16.63;55.42;100405.44;1088780;54;19934;-82
2022/06/14 05:38:31;;;;;;;;;;;;;;;16.68;55.44;100411.16;1088763;54;19950;-81
2022/06/14 05:39:37;;;;;;;;;;;;;;;16.71;55.25;100406.44;1088641;54;19951;-79
2022/06/14 05:40:46;;;;;;;;;;;;;;;16.73;55.33;100412.47;1090399;46;19958;-78
2022/06/14 05:41:52;;;;;;;;;;;;;;;16.78;54.86;100415.50;1088482;54;19971;-79
2022/06/14 05:42:56;;;;;;;;;;;;;;;16.81;54.50;100412.47;1088505;54;19966;-78
2022/06/14 05:44:06;;;;;;;;;;;;;;;16.83;54.45;100413.97;1088388;54;19955;-78
2022/06/14 05:45:09;;;;;;;;;;;;;;;16.88;53.79;100408.03;1089739;46;19954;-82
2022/06/14 05:46:17;;;;;;;;;;;;;;;16.90;53.77;100413.25;1088179;54;19942;-80
2022/06/14 05:47:21;;;;;;;;;;;;;;;16.98;53.54;100421.31;1088515;54;19958;-80
2022/06/14 05:48:30;;;;;;;;;;;;;;;17.05;53.62;100418.75;1088061;54;19982;-80
2022/06/14 05:49:34;;;;;;;;;;;;;;;17.10;53.14;100413.66;1088851;39;20562;-81
2022/06/14 05:50:41;;;;;;;;;;;;;;;17.13;53.03;100416.00;1088332;54;19949;-80
2022/06/14 05:51:44;;;;;;;;;;;;;;;17.10;53.04;100416.34;1088333;54;19950;-85
2022/06/14 05:52:49;;;;;;;;;;;;;;;17.15;53.04;100414.78;1088547;54;19934;-84
2022/06/14 05:53:55;;;;;;;;;;;;;;;17.18;52.98;100424.44;1088457;54;19941;-83
2022/06/14 05:55:01;;;;;;;;;;;;;;;17.19;52.59;100414.44;1088407;54;19943;-82
2022/06/14 05:56:11;;;;;;;;;;;;;;;17.21;52.91;100421.34;1088709;54;19933;-84
2022/06/14 05:57:22;;;;;;;;;;;;;;;17.26;52.47;100420.81;1094104;39;20593;-83
2022/06/14 05:58:26;;;;;;;;;;;;;;;17.32;52.62;100409.28;1088674;54;19950;-83
2022/06/14 05:59:34;;;;;;;;;;;;;;;17.36;52.50;100421.41;1088583;54;19931;-84
2022/06/14 06:00:39;;;;;;;;;;;;;;;17.34;52.07;100419.91;1088835;46;19922;-81
2022/06/14 06:01:46;;;;;;;;;;;;;;;17.21;51.95;100423.22;1091159;46;19969;-83
2022/06/14 06:02:50;;;;;;;;;;;;;;;17.25;52.41;100425.38;1088558;46;19943;-81
2022/06/14 06:03:57;;;;;;;;;;;;;;;17.27;51.98;100423.34;1088768;39;20451;-84
2022/06/14 06:05:01;;;;;;;;;;;;;;;17.19;52.33;100427.94;1089281;39;20385;-84
2022/06/14 06:06:06;;;;;;;;;;;;;;;17.21;52.04;100426.75;1088654;39;20396;-79
2022/06/14 06:07:10;;;;;;;;;;;;;;;17.14;52.59;100414.97;1088189;46;19999;-82
2022/06/14 06:08:17;;;;;;;;;;;;;;;17.07;52.52;100422.94;1088669;54;19978;-82
2022/06/14 06:09:22;;;;;;;;;;;;;;;17.08;52.73;100421.09;1088642;54;19938;-79
2022/06/14 06:10:29;;;;;;;;;;;;;;;17.07;52.43;100424.81;1088614;54;19930;-84
2022/06/14 06:11:36;;;;;;;;;;;;;;;17.05;52.58;100416.06;1088515;54;20715;-84
2022/06/14 06:12:42;;;;;;;;;;;;;;;17.06;52.61;100421.28;1088562;54;19954;-79
2022/06/14 06:13:45;;;;;;;;;;;;;;;17.06;52.49;100417.75;1088547;54;21332;-84
2022/06/14 06:14:52;;;;;;;;;;;;;;;17.05;52.49;100418.75;1093605;39;20578;-83
2022/06/14 06:15:56;;;;;;;;;;;;;;;17.07;52.53;100419.44;1088608;54;19994;-85
2022/06/14 06:17:03;;;;;;;;;;;;;;;17.08;52.79;100407.59;1088685;54;19958;-83
2022/06/14 06:18:06;;;;;;;;;;;;;;;17.15;52.64;100406.69;1088487;54;19945;-80
2022/06/14 06:19:12;;;;;;;;;;;;;;;17.06;52.14;100406.94;1088452;54;19943;-84
2022/06/14 06:20:23;;;;;;;;;;;;;;;17.09;52.84;100406.59;1088399;54;19946;-81
2022/06/14 06:21:30;;;;;;;;;;;;;;;17.20;52.36;100416.97;1088491;54;19927;-83
2022/06/14 06:22:32;;;;;;;;;;;;;;;17.28;52.30;100408.81;1088545;54;19943;-84
2022/06/14 06:23:39;;;;;;;;;;;;;;;17.37;52.35;100406.88;1088603;54;19927;-83
2022/06/14 06:24:45;;;;;;;;;;;;;;;17.44;51.90;100401.59;1088403;54;19943;-79
2022/06/14 06:25:50;;;;;;;;;;;;;;;17.45;52.12;100409.50;1088324;54;20049;-79
2022/06/14 06:26:57;;;;;;;;;;;;;;;17.49;52.08;100407.28;1091420;39;20542;-80
2022/06/14 06:28:03;;;;;;;;;;;;;;;17.49;51.71;100410.00;1088300;54;20646;-79
2022/06/14 06:29:07;;;;;;;;;;;;;;;17.53;51.78;100403.22;1088373;54;19943;-79
2022/06/14 06:30:17;;;;;;;;;;;;;;;17.45;52.02;100406.00;1088373;54;19982;-79
2022/06/14 06:31:20;;;;;;;;;;;;;;;17.43;52.11;100400.75;1088387;54;19942;-78